Terminal Aerodrome Forecast
Issued by NWS

Home | Current Version | Previous Version | Text Only | Print | Product List | Glossary On
Versions: 1 2 3 4 5 6 7 8 9 10 11 12 13 14 15 16 17 18 19 20 21 22
257
FTUS46 KSEW 212029 AAB
TAFPAE
TAF AMD
KPAE 212029Z 2120/2218 00000KT 1SM -RA BR BKN003 OVC021
      WS020/19035KT
     FM212300 15013G21KT 5SM -SHRA OVC015
     FM220100 17014G22KT P6SM -SHRA OVC019
     FM220700 17014G22KT P6SM VCSH OVC015=

USA.gov is the U.S. government's official web portal to all federal, state and local government web resources and services.